Cabinet, Idaho
Current Conditions -  °F | °C
As of 7:55 AM on Friday 28 Nov 2014 (Local Time) from KSZT Reporting Station
Overcast Overcast  
Wind Chill: 50°   Ceiling: 3600
Heat Index: 50°   Visibility: 10mi
Dew Point: 41°   Wind: 9mph
Humidity: 71%   Direction: 210°SSW
Pressure: 29.5"   Gusts: 18mph
Location:  48.029°N, 116.307°W
Report Text: KSZT 281555Z AUTO 21008G16KT 10SM OVC036 10/05 A2950 RMK AO2
Loading
Personal Weather Stations






























Interactive Weather Map New forecast layout! Learn more

10-Day Weather Forecast

Advertisements
Track Severe Weather on mobile